createdAt,value
2019-06-26T00:00:27.510Z,6.90
2019-06-26T00:02:57.183Z,6.85
2019-06-26T00:05:26.792Z,7.17
2019-06-26T00:07:56.339Z,7.30
2019-06-26T00:10:25.879Z,8.28
2019-06-26T00:12:55.425Z,7.53
2019-06-26T00:15:25.115Z,7.53
2019-06-26T00:17:54.674Z,7.90
2019-06-26T00:20:25.254Z,7.58
2019-06-26T00:22:54.883Z,7.40
2019-06-26T00:25:24.423Z,7.72
2019-06-26T00:27:54.036Z,8.00
2019-06-26T00:30:23.570Z,8.15
2019-06-26T00:32:53.239Z,7.25
2019-06-26T00:35:22.833Z,8.13
2019-06-26T00:37:52.444Z,7.62
2019-06-26T00:40:22.000Z,7.50
2019-06-26T00:42:51.569Z,7.83
2019-06-26T00:45:21.305Z,7.45
2019-06-26T00:47:50.927Z,7.80
2019-06-26T00:50:20.710Z,7.70
2019-06-26T00:52:50.441Z,8.08
2019-06-26T00:55:19.984Z,8.03
2019-06-26T00:57:49.650Z,8.00
2019-06-26T01:00:20.907Z,8.00
2019-06-26T01:02:51.691Z,8.00
2019-06-26T01:05:21.302Z,8.43
2019-06-26T01:07:50.837Z,8.93
2019-06-26T01:10:20.547Z,8.58
2019-06-26T01:12:50.090Z,8.98
2019-06-26T01:15:19.843Z,8.65
2019-06-26T01:17:49.371Z,8.83
2019-06-26T01:20:18.994Z,8.70
2019-06-26T01:22:48.533Z,8.15
2019-06-26T01:25:18.327Z,9.00
2019-06-26T01:27:47.853Z,8.75
2019-06-26T01:30:18.074Z,9.35
2019-06-26T01:32:47.676Z,8.70
2019-06-26T01:35:17.223Z,8.38
2019-06-26T01:37:46.910Z,8.08
2019-06-26T01:40:16.696Z,9.30
2019-06-26T01:42:46.238Z,8.28
2019-06-26T01:45:15.991Z,7.83
2019-06-26T01:47:45.977Z,8.88
2019-06-26T01:50:15.655Z,8.40
2019-06-26T01:52:45.282Z,8.93
2019-06-26T01:55:15.926Z,8.50
2019-06-26T01:57:45.460Z,8.68
2019-06-26T02:00:15.756Z,9.13
2019-06-26T02:02:45.365Z,9.70
2019-06-26T02:05:15.042Z,8.93
2019-06-26T02:07:44.755Z,9.80
2019-06-26T02:10:15.990Z,9.05
2019-06-26T02:12:45.657Z,9.63
2019-06-26T02:15:15.625Z,8.53
2019-06-26T02:17:45.235Z,9.38
2019-06-26T02:20:14.982Z,9.38
2019-06-26T02:22:44.537Z,9.23
2019-06-26T02:25:14.221Z,9.13
2019-06-26T02:27:43.760Z,8.20
2019-06-26T02:30:13.883Z,8.60
2019-06-26T02:32:43.410Z,8.95
2019-06-26T02:35:13.394Z,9.03
2019-06-26T02:37:43.003Z,8.83
2019-06-26T02:40:12.987Z,9.15
2019-06-26T02:42:42.543Z,9.00
2019-06-26T02:45:12.344Z,9.35
2019-06-26T02:47:41.933Z,9.20
2019-06-26T02:50:11.809Z,9.20
2019-06-26T02:52:41.719Z,9.35
2019-06-26T02:55:11.503Z,9.73
2019-06-26T02:57:41.052Z,9.10
2019-06-26T03:00:10.733Z,10.08
2019-06-26T03:02:40.359Z,9.88
2019-06-26T03:05:10.161Z,9.98
2019-06-26T03:07:39.704Z,10.00
2019-06-26T03:10:10.576Z,10.35
2019-06-26T03:12:40.162Z,9.98
2019-06-26T03:15:10.362Z,10.78
2019-06-26T03:17:54.263Z,10.72
2019-06-26T03:20:11.606Z,10.80
2019-06-26T03:22:41.206Z,10.32
2019-06-26T03:25:10.746Z,10.28
2019-06-26T03:27:40.292Z,11.25
2019-06-26T03:30:10.495Z,10.70
2019-06-26T03:32:40.059Z,10.53
2019-06-26T03:35:10.023Z,10.85
2019-06-26T03:37:39.593Z,11.68
2019-06-26T03:40:10.351Z,10.63
2019-06-26T03:42:39.916Z,11.22
2019-06-26T03:45:24.455Z,10.55
2019-06-26T03:47:40.700Z,11.22
2019-06-26T03:50:10.880Z,10.03
2019-06-26T03:52:40.495Z,11.08
2019-06-26T03:55:10.480Z,10.43
2019-06-26T03:57:40.027Z,10.82
2019-06-26T04:00:10.125Z,10.93
2019-06-26T04:02:39.662Z,10.20
2019-06-26T04:05:09.441Z,9.58
2019-06-26T04:07:39.073Z,10.45
2019-06-26T04:10:08.842Z,10.08
2019-06-26T04:12:38.451Z,9.63
2019-06-26T04:15:08.657Z,9.20
2019-06-26T04:17:38.254Z,9.68
2019-06-26T04:20:08.945Z,9.68
2019-06-26T04:22:38.553Z,9.25
2019-06-26T04:25:08.442Z,9.18
2019-06-26T04:27:38.029Z,9.08
2019-06-26T04:30:10.632Z,8.98
2019-06-26T04:32:40.350Z,9.28
2019-06-26T04:35:10.450Z,8.90
2019-06-26T04:37:40.003Z,8.75
2019-06-26T04:40:10.385Z,8.38
2019-06-26T04:42:39.923Z,7.58
2019-06-26T04:45:09.802Z,7.72
2019-06-26T04:47:39.553Z,7.47
2019-06-26T04:50:09.722Z,7.33
2019-06-26T04:52:39.336Z,6.90
2019-06-26T04:55:09.712Z,7.33
2019-06-26T04:57:39.313Z,7.47
2019-06-26T05:00:09.990Z,7.20
2019-06-26T05:02:39.526Z,7.25
2019-06-26T05:05:10.804Z,7.37
2019-06-26T05:07:40.417Z,7.03
2019-06-26T05:10:10.115Z,7.28
2019-06-26T05:12:39.636Z,7.33
2019-06-26T05:15:09.915Z,7.15
2019-06-26T05:17:39.520Z,7.35
2019-06-26T05:20:10.860Z,6.47
2019-06-26T05:22:40.468Z,7.17
2019-06-26T05:25:11.528Z,6.90
2019-06-26T05:27:41.381Z,6.58
2019-06-26T05:30:12.214Z,6.28
2019-06-26T05:32:41.822Z,6.33
2019-06-26T05:35:11.852Z,6.17
2019-06-26T05:37:42.059Z,6.60
2019-06-26T05:40:12.811Z,5.72
2019-06-26T05:42:42.369Z,6.00
2019-06-26T05:45:12.940Z,6.12
2019-06-26T05:47:42.481Z,6.35
2019-06-26T05:50:12.767Z,6.55
2019-06-26T05:52:43.163Z,6.33
2019-06-26T05:55:14.811Z,6.08
2019-06-26T05:57:48.192Z,5.37
2019-06-26T06:00:17.408Z,5.45
2019-06-26T06:02:47.069Z,6.17
2019-06-26T06:05:17.258Z,6.17
2019-06-26T06:07:46.787Z,6.15
2019-06-26T06:10:16.873Z,5.78
2019-06-26T06:12:46.539Z,5.80
2019-06-26T06:15:17.979Z,5.45
2019-06-26T06:17:47.560Z,6.65
2019-06-26T06:20:23.107Z,6.60
2019-06-26T06:22:52.640Z,6.05
2019-06-26T06:25:22.670Z,6.00
2019-06-26T06:27:52.206Z,5.80
2019-06-26T06:30:22.677Z,6.15
2019-06-26T06:32:52.289Z,5.53
2019-06-26T06:35:21.884Z,5.47
2019-06-26T06:37:51.516Z,5.30
2019-06-26T06:40:21.669Z,6.35
2019-06-26T06:42:51.340Z,5.87
2019-06-26T06:45:22.711Z,7.45
2019-06-26T06:47:52.417Z,7.37
2019-06-26T06:50:22.010Z,9.13
2019-06-26T06:52:51.625Z,6.65
2019-06-26T06:55:21.244Z,7.12
2019-06-26T06:57:51.581Z,6.92
2019-06-26T07:00:21.457Z,6.15
2019-06-26T07:02:51.055Z,7.05
2019-06-26T07:05:20.756Z,6.55
2019-06-26T07:07:50.458Z,7.47
2019-06-26T07:10:20.868Z,6.80
2019-06-26T07:12:50.516Z,7.00
2019-06-26T07:15:20.396Z,6.50
2019-06-26T07:17:49.975Z,7.15
2019-06-26T07:20:20.020Z,7.10
2019-06-26T07:22:49.559Z,6.92
2019-06-26T07:25:19.161Z,6.45
2019-06-26T07:27:48.704Z,6.75
2019-06-26T07:30:18.475Z,7.53
2019-06-26T07:32:48.017Z,7.75
2019-06-26T07:35:17.624Z,8.00
2019-06-26T07:37:47.168Z,7.45
2019-06-26T07:40:17.333Z,7.30
2019-06-26T07:42:47.940Z,7.30
2019-06-26T07:45:17.650Z,6.92
2019-06-26T07:47:47.176Z,7.42
2019-06-26T07:50:16.962Z,7.65
2019-06-26T07:52:46.561Z,8.05
2019-06-26T07:55:16.439Z,7.65
2019-06-26T07:57:45.981Z,7.33
2019-06-26T08:00:16.248Z,7.53
2019-06-26T08:02:45.796Z,7.62
2019-06-26T08:05:15.737Z,8.05
2019-06-26T08:07:45.319Z,8.08
2019-06-26T08:10:15.102Z,8.00
2019-06-26T08:12:44.701Z,7.87
2019-06-26T08:15:14.374Z,7.08
2019-06-26T08:17:59.091Z,7.28
2019-06-26T08:20:16.926Z,7.05
2019-06-26T08:22:47.442Z,6.75
2019-06-26T08:25:17.318Z,6.97
2019-06-26T08:27:46.916Z,7.33
2019-06-26T08:30:17.906Z,7.15
2019-06-26T08:32:47.442Z,7.53
2019-06-26T08:35:17.134Z,6.87
2019-06-26T08:37:46.676Z,7.35
2019-06-26T08:40:16.759Z,7.17
2019-06-26T08:42:46.436Z,7.53
2019-06-26T08:45:16.365Z,7.58
2019-06-26T08:47:45.975Z,6.87
2019-06-26T08:50:15.849Z,6.78
2019-06-26T08:52:45.531Z,7.10
2019-06-26T08:55:15.414Z,7.33
2019-06-26T08:57:44.953Z,7.17
2019-06-26T09:00:16.339Z,6.72
2019-06-26T09:02:45.874Z,6.75
2019-06-26T09:05:15.563Z,6.72
2019-06-26T09:07:45.125Z,6.75
2019-06-26T09:10:15.018Z,6.42
2019-06-26T09:12:44.625Z,6.40
2019-06-26T09:15:14.234Z,7.00
2019-06-26T09:17:43.861Z,6.42
2019-06-26T09:20:13.661Z,6.72
2019-06-26T09:22:43.200Z,7.25
2019-06-26T09:25:21.539Z,7.55
2019-06-26T09:27:43.968Z,7.25
2019-06-26T09:30:13.937Z,7.00
2019-06-26T09:32:43.492Z,7.08
2019-06-26T09:35:13.164Z,7.05
2019-06-26T09:37:42.730Z,6.78
2019-06-26T09:40:12.831Z,6.72
2019-06-26T09:42:42.371Z,6.83
2019-06-26T09:45:12.151Z,7.78
2019-06-26T09:47:41.746Z,6.25
2019-06-26T09:50:11.677Z,6.72
2019-06-26T09:52:41.246Z,6.87
2019-06-26T09:55:11.020Z,7.92
2019-06-26T09:57:40.638Z,7.33
2019-06-26T10:00:13.189Z,7.42
2019-06-26T10:02:42.819Z,7.35
2019-06-26T10:05:13.188Z,6.70
2019-06-26T10:07:42.784Z,6.45
2019-06-26T10:10:13.046Z,7.03
2019-06-26T10:12:42.665Z,7.67
2019-06-26T10:15:12.637Z,6.95
2019-06-26T10:17:42.317Z,6.90
2019-06-26T10:20:12.598Z,6.50
2019-06-26T10:22:42.209Z,7.22
2019-06-26T10:25:12.375Z,8.20
2019-06-26T10:27:41.992Z,7.00
2019-06-26T10:30:12.097Z,6.67
2019-06-26T10:32:41.776Z,7.70
2019-06-26T10:35:11.659Z,7.65
2019-06-26T10:37:41.269Z,6.75
2019-06-26T10:40:11.165Z,7.40
2019-06-26T10:42:40.702Z,6.60
2019-06-26T10:45:10.994Z,7.60
2019-06-26T10:47:40.598Z,7.17
2019-06-26T10:50:10.642Z,6.87
2019-06-26T10:52:40.183Z,6.85
2019-06-26T10:55:10.278Z,7.60
2019-06-26T10:57:39.810Z,7.40
2019-06-26T11:00:11.237Z,7.62
2019-06-26T11:02:40.760Z,6.70
2019-06-26T11:05:11.043Z,6.35
2019-06-26T11:07:40.583Z,6.65
2019-06-26T11:10:10.666Z,6.67
2019-06-26T11:12:40.215Z,6.42
2019-06-26T11:15:10.677Z,6.30
2019-06-26T11:17:40.273Z,6.75
2019-06-26T11:20:11.831Z,6.65
2019-06-26T11:22:41.449Z,7.75
2019-06-26T11:25:11.618Z,7.12
2019-06-26T11:27:41.402Z,7.53
2019-06-26T11:30:12.043Z,7.33
2019-06-26T11:32:42.457Z,7.08
2019-06-26T11:35:12.144Z,6.42
2019-06-26T11:37:41.822Z,6.50
2019-06-26T11:40:11.810Z,6.50
2019-06-26T11:42:41.489Z,7.67
2019-06-26T11:45:11.388Z,6.40
2019-06-26T11:47:40.916Z,6.72
2019-06-26T11:50:11.412Z,6.50
2019-06-26T11:52:42.064Z,6.92
2019-06-26T11:55:13.803Z,6.80
2019-06-26T11:57:43.419Z,6.87
2019-06-26T12:00:18.952Z,6.80
2019-06-26T12:02:48.641Z,6.15
2019-06-26T12:05:18.518Z,7.30
2019-06-26T12:07:48.138Z,7.33
2019-06-26T12:10:19.269Z,6.62
2019-06-26T12:12:48.961Z,6.87
2019-06-26T12:15:20.983Z,6.47
2019-06-26T12:17:50.619Z,6.72
2019-06-26T12:20:20.603Z,6.55
2019-06-26T12:22:50.167Z,6.33
2019-06-26T12:25:19.813Z,6.35
2019-06-26T12:27:49.367Z,7.15
2019-06-26T12:30:19.005Z,6.55
2019-06-26T12:33:02.928Z,6.75
2019-06-26T12:35:25.505Z,6.35
2019-06-26T12:37:55.089Z,6.50
2019-06-26T12:40:24.746Z,6.65
2019-06-26T12:42:55.725Z,6.67
2019-06-26T12:45:26.739Z,6.62
2019-06-26T12:47:56.345Z,6.20
2019-06-26T12:50:35.347Z,5.95
2019-06-26T12:52:57.372Z,6.50
2019-06-26T12:55:26.950Z,6.37
2019-06-26T12:58:11.881Z,6.37
2019-06-26T13:00:27.708Z,6.00
2019-06-26T13:02:57.246Z,6.00
2019-06-26T13:05:26.777Z,6.05
2019-06-26T13:07:56.334Z,5.67
2019-06-26T13:10:26.025Z,6.03
2019-06-26T13:12:56.629Z,5.92
2019-06-26T13:15:26.247Z,5.42
2019-06-26T13:17:55.844Z,5.50
2019-06-26T13:20:25.447Z,5.70
2019-06-26T13:22:54.983Z,5.72
2019-06-26T13:25:24.611Z,5.75
2019-06-26T13:27:54.147Z,5.90
2019-06-26T13:30:26.805Z,5.72
2019-06-26T13:32:56.340Z,5.72
2019-06-26T13:35:25.943Z,5.80
2019-06-26T13:37:55.635Z,6.10
2019-06-26T13:40:25.179Z,5.65
2019-06-26T13:42:55.778Z,5.60
2019-06-26T13:45:25.285Z,5.70
2019-06-26T13:47:54.842Z,5.83
2019-06-26T13:50:24.517Z,5.70
2019-06-26T13:52:54.066Z,5.60
2019-06-26T13:55:23.686Z,5.30
2019-06-26T13:57:53.294Z,6.03
2019-06-26T14:00:23.162Z,5.87
2019-06-26T14:02:52.766Z,6.10
2019-06-26T14:05:22.528Z,5.55
2019-06-26T14:07:52.175Z,5.65
2019-06-26T14:10:22.027Z,6.62
2019-06-26T14:12:51.629Z,6.30
2019-06-26T14:15:21.408Z,5.47
2019-06-26T14:17:50.991Z,5.70
2019-06-26T14:20:20.663Z,6.50
2019-06-26T14:22:53.102Z,5.80
2019-06-26T14:25:22.712Z,6.45
2019-06-26T14:27:52.227Z,6.08
2019-06-26T14:30:22.808Z,5.87
2019-06-26T14:32:52.429Z,6.20
2019-06-26T14:35:22.010Z,6.12
2019-06-26T14:37:51.573Z,6.15
2019-06-26T14:40:21.263Z,6.58
2019-06-26T14:42:50.870Z,6.45
2019-06-26T14:45:20.556Z,6.17
2019-06-26T14:47:50.080Z,6.30
2019-06-26T14:50:19.737Z,6.30
2019-06-26T14:52:49.290Z,6.17
2019-06-26T14:55:19.079Z,6.28
2019-06-26T14:57:48.619Z,6.78
2019-06-26T15:00:18.725Z,7.15
2019-06-26T15:02:48.243Z,7.00
2019-06-26T15:05:17.930Z,6.47
2019-06-26T15:07:50.068Z,5.87
2019-06-26T15:12:47.630Z,6.70
2019-06-26T15:15:17.815Z,6.40
2019-06-26T15:17:47.432Z,6.67
2019-06-26T15:20:17.320Z,7.00
2019-06-26T15:22:46.929Z,7.35
2019-06-26T15:25:17.690Z,6.65
2019-06-26T15:27:47.200Z,6.97
2019-06-26T15:30:17.487Z,7.33
2019-06-26T15:32:48.438Z,7.10
2019-06-26T15:35:18.035Z,6.95
2019-06-26T15:37:47.584Z,7.85
2019-06-26T15:40:17.285Z,7.72
2019-06-26T15:42:48.959Z,7.60
2019-06-26T15:45:20.714Z,8.10
2019-06-26T15:47:49.330Z,8.23
2019-06-26T15:50:19.080Z,7.75
2019-06-26T15:52:48.705Z,8.10
2019-06-26T15:55:18.323Z,7.85
2019-06-26T15:57:47.888Z,7.22
2019-06-26T16:00:17.776Z,7.25
2019-06-26T16:02:47.322Z,7.10
2019-06-26T16:05:17.001Z,7.75
2019-06-26T16:07:46.616Z,7.58
2019-06-26T16:10:16.315Z,7.10
2019-06-26T16:12:45.866Z,7.28
2019-06-26T16:15:15.565Z,7.75
2019-06-26T16:17:46.902Z,7.12
2019-06-26T16:20:18.075Z,7.47
2019-06-26T16:22:47.594Z,7.67
2019-06-26T16:25:17.233Z,7.47
2019-06-26T16:27:46.839Z,7.50
2019-06-26T16:30:17.385Z,8.33
2019-06-26T16:32:46.932Z,7.20
2019-06-26T16:35:16.639Z,7.20
2019-06-26T16:37:46.180Z,7.45
2019-06-26T16:40:15.869Z,7.40
2019-06-26T16:42:45.431Z,7.53
2019-06-26T16:45:15.538Z,7.40
2019-06-26T16:47:45.161Z,7.97
2019-06-26T16:50:15.294Z,7.50
2019-06-26T16:52:49.770Z,7.50
2019-06-26T16:55:16.025Z,7.87
2019-06-26T16:57:45.842Z,7.12
2019-06-26T17:00:15.839Z,8.05
2019-06-26T17:02:45.376Z,7.83
2019-06-26T17:05:15.283Z,7.00
2019-06-26T17:07:44.901Z,7.15
2019-06-26T17:10:14.926Z,7.87
2019-06-26T17:12:45.545Z,7.67
2019-06-26T17:15:15.339Z,7.60
2019-06-26T17:17:44.928Z,7.28
2019-06-26T17:20:14.681Z,7.20
2019-06-26T17:22:44.380Z,8.05
2019-06-26T17:25:14.372Z,7.72
2019-06-26T17:27:43.965Z,7.87
2019-06-26T17:30:13.646Z,7.35
2019-06-26T17:32:43.206Z,7.80
2019-06-26T17:35:15.915Z,7.42
2019-06-26T17:37:45.529Z,7.97
2019-06-26T17:40:16.252Z,8.13
2019-06-26T17:42:45.785Z,7.35
2019-06-26T17:45:15.545Z,7.72
2019-06-26T17:47:45.181Z,7.62
2019-06-26T17:50:15.163Z,7.67
2019-06-26T17:52:44.798Z,7.80
2019-06-26T17:55:14.486Z,7.22
2019-06-26T17:57:47.418Z,7.58
2019-06-26T18:00:16.046Z,6.62
2019-06-26T18:02:45.651Z,7.50
2019-06-26T18:05:15.270Z,7.62
2019-06-26T18:07:44.811Z,7.00
2019-06-26T18:10:14.487Z,6.87
2019-06-26T18:12:45.111Z,6.78
2019-06-26T18:15:14.814Z,7.10
2019-06-26T18:17:44.336Z,7.55
2019-06-26T18:20:14.022Z,8.05
2019-06-26T18:22:43.553Z,7.33
2019-06-26T18:25:16.478Z,6.92
2019-06-26T18:30:13.629Z,6.95
2019-06-26T18:32:43.164Z,7.72
2019-06-26T18:35:12.770Z,7.42
2019-06-26T18:37:42.302Z,7.12
2019-06-26T18:40:13.660Z,6.95
2019-06-26T18:42:43.207Z,7.60
2019-06-26T18:45:12.978Z,7.08
2019-06-26T18:47:42.506Z,7.45
2019-06-26T18:50:12.443Z,7.17
2019-06-26T18:52:42.059Z,6.90
2019-06-26T18:55:11.758Z,6.97
2019-06-26T18:57:41.287Z,6.70
2019-06-26T19:00:11.199Z,6.72
2019-06-26T19:02:40.750Z,7.25
2019-06-26T19:05:10.408Z,6.78
2019-06-26T19:07:40.018Z,6.97
2019-06-26T19:10:10.489Z,6.75
2019-06-26T19:12:40.203Z,6.70
2019-06-26T19:15:09.875Z,6.75
2019-06-26T19:17:42.460Z,6.92
2019-06-26T19:20:11.424Z,7.10
2019-06-26T19:22:47.714Z,7.17
2019-06-26T19:25:17.594Z,7.15
2019-06-26T19:27:47.145Z,6.95
2019-06-26T19:30:17.132Z,6.20
2019-06-26T19:32:46.816Z,7.00
2019-06-26T19:35:20.255Z,6.92
2019-06-26T19:37:47.720Z,7.22
2019-06-26T19:40:17.412Z,10.65
2019-06-26T19:42:47.008Z,9.93
2019-06-26T19:45:16.904Z,7.70
2019-06-26T19:47:46.434Z,7.80
2019-06-26T19:50:16.229Z,8.35
2019-06-26T19:52:45.843Z,8.00
2019-06-26T19:55:15.770Z,8.08
2019-06-26T19:57:45.402Z,8.43
2019-06-26T20:00:15.518Z,9.03
2019-06-26T20:02:45.207Z,10.50
2019-06-26T20:05:15.237Z,10.03
2019-06-26T20:07:44.785Z,9.95
2019-06-26T20:10:15.390Z,9.33
2019-06-26T20:12:45.000Z,10.32
2019-06-26T20:15:14.698Z,9.50
2019-06-26T20:17:44.230Z,8.83
2019-06-26T20:20:14.118Z,8.68
2019-06-26T20:22:43.670Z,9.30
2019-06-26T20:25:13.572Z,9.88
2019-06-26T20:27:43.219Z,9.80
2019-06-26T20:30:14.605Z,9.93
2019-06-26T20:32:44.204Z,9.53
2019-06-26T20:35:13.881Z,9.00
2019-06-26T20:37:43.427Z,9.23
2019-06-26T20:40:13.315Z,8.90
2019-06-26T20:42:42.925Z,9.13
2019-06-26T20:45:14.123Z,7.97
2019-06-26T20:47:43.685Z,7.92
2019-06-26T20:50:13.573Z,7.67
2019-06-26T20:52:43.121Z,7.95
2019-06-26T20:55:12.810Z,9.50
2019-06-26T20:57:42.346Z,9.05
2019-06-26T21:00:12.815Z,8.88
2019-06-26T21:02:42.432Z,8.65
2019-06-26T21:05:12.133Z,8.30
2019-06-26T21:07:41.766Z,8.70
2019-06-26T21:10:12.255Z,8.48
2019-06-26T21:12:41.964Z,8.68
2019-06-26T21:15:11.737Z,9.08
2019-06-26T21:17:41.287Z,8.23
2019-06-26T21:20:11.825Z,8.63
2019-06-26T21:22:41.495Z,9.43
2019-06-26T21:25:18.907Z,8.75
2019-06-26T21:27:42.221Z,8.90
2019-06-26T21:30:12.426Z,9.10
2019-06-26T21:32:42.052Z,9.03
2019-06-26T21:35:12.038Z,9.10
2019-06-26T21:37:41.625Z,8.45
2019-06-26T21:40:11.348Z,8.58
2019-06-26T21:42:40.894Z,9.38
2019-06-26T21:45:10.567Z,8.80
2019-06-26T21:47:40.203Z,8.88
2019-06-26T21:50:10.426Z,9.40
2019-06-26T21:52:39.973Z,9.43
2019-06-26T21:55:09.582Z,9.20
2019-06-26T21:57:57.287Z,9.30
2019-06-26T22:00:45.119Z,9.58
2019-06-26T22:03:32.809Z,10.28
2019-06-26T22:06:12.661Z,9.90
2019-06-26T22:08:46.709Z,9.30
2019-06-26T22:11:18.006Z,9.90
2019-06-26T22:13:47.617Z,8.40
2019-06-26T22:16:17.310Z,9.35
2019-06-26T22:18:46.993Z,8.63
2019-06-26T22:21:16.526Z,9.00
2019-06-26T22:23:46.086Z,9.00
2019-06-26T22:26:15.691Z,8.88
2019-06-26T22:28:45.335Z,8.55
2019-06-26T22:31:14.890Z,9.25
2019-06-26T22:33:44.498Z,9.23
2019-06-26T22:36:14.039Z,9.73
2019-06-26T22:38:43.576Z,9.45
2019-06-26T22:41:13.193Z,9.55
2019-06-26T22:43:42.802Z,9.45
2019-06-26T22:46:12.371Z,9.08
2019-06-26T22:48:41.881Z,9.10
2019-06-26T22:51:12.561Z,9.38
2019-06-26T22:53:43.171Z,9.20
2019-06-26T22:56:12.778Z,9.73
2019-06-26T22:58:43.486Z,9.90
2019-06-26T23:01:13.035Z,9.63
2019-06-26T23:03:42.649Z,9.88
2019-06-26T23:06:12.213Z,9.48
2019-06-26T23:08:41.832Z,9.18
2019-06-26T23:11:11.514Z,9.45
2019-06-26T23:13:41.179Z,9.00
2019-06-26T23:16:10.791Z,9.88
2019-06-26T23:18:40.335Z,9.53
2019-06-26T23:21:10.815Z,8.83
2019-06-26T23:23:41.429Z,9.28
2019-06-26T23:26:23.439Z,9.65
2019-06-26T23:28:42.211Z,9.45
2019-06-26T23:31:11.783Z,9.03
2019-06-26T23:33:41.291Z,9.63
2019-06-26T23:36:10.906Z,9.20
2019-06-26T23:38:40.526Z,9.48
2019-06-26T23:41:10.069Z,9.55
2019-06-26T23:43:39.598Z,9.28
2019-06-26T23:46:10.211Z,9.10
2019-06-26T23:48:39.809Z,9.20
2019-06-26T23:51:09.362Z,9.65
2019-06-26T23:53:38.901Z,9.50
2019-06-26T23:56:08.459Z,10.10
2019-06-26T23:58:38.063Z,10.55
